Meridian, MS (39309)

12:06 AM CDT on April 02, 2015 (GMT -0500)
Meridian Naval Air Station | | Change Station
CLOSE
Current Station
Airport
Location: Meridian NAS,
Elevation: 318 ft
Nearby Weather Stations

Elev 318 ft 32.55 °N, 88.56 °W | Updated 10 minutes ago

Mostly Cloudy
Mostly Cloudy
67 °F
Feels Like 67 °F
N
0
Wind Variable Wind from North

Today
High -- | Low -- °F
--% Chance of Precip.
Yesterday
High -- | Low -- °F
Precip. -- in
6:41 AM 7:14 PM
Waxing Gibbous, 95% visible
Pressure 30.08 in
Visibility 10.0 miles
Clouds Mostly Cloudy 18000 ft
Dew Point 60 °F
Humidity 79%
Rainfall 0.00 in
Snow Depth Not available.
UV 0 out of 12
Pollen 8.80 out of 12
Air Quality Not available.
Flu Activity Not available.
METAR KNMM 020456Z 00000KT 10SM BKN180 19/16 A3005 RMK AO2 SLP184 T01940156 $

More Conditions Fewer Conditions

Pressure 30.08 in
Visibility 10.0 miles
Clouds Mostly Cloudy 18000 ft
Dew Point 60 °F
Humidity 79%
Rainfall 0.00 in
Snow Depth Not available.
UV 0 out of 12
Pollen 8.80 out of 12
Air Quality Not available.
Flu Activity Not available.
METAR KNMM 020456Z 00000KT 10SM BKN180 19/16 A3005 RMK AO2 SLP184 T01940156 $

More Conditions Fewer Conditions

10-Day Weather Forecast

Almanac

Astronomy

Apr. 02, 2015 Rise Set
Actual Time
Civil Twilight
Nautical Twilight
Astronomical Twilight
Moon
Length of Visible Light
Length of Day
Tomorrow will be .
, % of the Moon is Illuminated

Today's Extremes

State Highs State Lows

Community

WunderPhotos

Upload Photos

1,810,199 photos uploaded!

WunderBlogs® & News

Nearby

Air Quality

  Air Quality AQ Index Pollutant
Not available.

Snow Depth

Station Depth Elevation

Earthquake Activity

City Distance Mag. Time & Date
Minimum magnitude displayed is 2.5.

Coastal Water Temperatures

Place Temperature

Stations

Nearby Weather Stations

Station Location Temp. Windchill Dew Point Humidity Wind Precip. Elev Updated Type